メインページ
METAR-TAF:

METAR-TAF

空港 :

ポートオブスペイン, トリニダード島, トリニダード・トバゴ

緯度: 10-37N, 経度: 061-21W, 海抜: 12m

現時点の気象観測

当レポートは42分前の05:00(UTC)に作成
の風 10kt
気温 26°C
湿度 84%
気圧 1012 hPa
視程10km以上
高度1600ftの千切れ雲あり
弱いにわか雨, 近辺でにわか雨

METAR: TTPP 210500Z 10010KT 9999 -SHRA VCSH BKN016 26/23 Q1012 TEMPO SHRA RMK VCSH N

時間: 01:42 (05:42 UTC)

予報

当レポートは1時間42分前の04:00(UTC)に作成
予報は21日の 06時(UTC)から 22日の 06時(UTC)まで有効
の風 5kt
視程10km以上
高度1800ftの雲はほとんどない
21日の 11時(UTC)から 21日の 13時(UTC)まで徐々に
の風 15kt
高度2500ftの雲は散在している
22日の 00時(UTC)から 22日の 02時(UTC)まで徐々に
の風 5kt
高度1800ftの雲はほとんどない

TAF: TTPP 210400Z 2106/2206 09005KT 9999 FEW018 BECMG 2111/2113 09015KT SCT025 BECMG 2200/2202 09005KT FEW018

4,000以上の空港の気象観測と天気予報(METAR報とTAF報)

利用可能な観測所は地図上に黄色い丸と赤い丸で示す。

丸の上にカーソルを重ねると観測所名を参照できる。

次にクリックすると気象観測と天気予報を参照できる。

マップの切り替え:黒色「×」印の緑ボタンをクリックして拡大、「-」印の緑ボタンをクリックして縮小、緑色の三角印をクリックして隣りの地図に切り替え


METAR-TAF: